createdAt,value
2018-03-07T00:00:19.979Z,91.17
2018-03-07T00:02:54.959Z,93.70
2018-03-07T00:05:30.110Z,94.40
2018-03-07T00:08:05.382Z,95.05
2018-03-07T00:10:40.862Z,99.07
2018-03-07T00:13:16.082Z,104.43
2018-03-07T00:15:51.042Z,100.10
2018-03-07T00:18:26.254Z,91.90
2018-03-07T00:21:01.398Z,99.83
2018-03-07T00:23:36.507Z,92.67
2018-03-07T00:26:12.039Z,87.40
2018-03-07T00:28:47.023Z,97.23
2018-03-07T00:31:22.850Z,95.57
2018-03-07T00:33:57.308Z,93.00
2018-03-07T00:36:32.358Z,102.10
2018-03-07T00:39:07.462Z,100.40
2018-03-07T00:41:42.965Z,91.57
2018-03-07T00:44:18.035Z,94.97
2018-03-07T00:46:52.982Z,94.53
2018-03-07T00:49:28.046Z,103.67
2018-03-07T00:52:03.054Z,99.67
2018-03-07T00:54:38.108Z,99.40
2018-03-07T00:57:13.059Z,98.30
2018-03-07T00:59:48.146Z,106.70
2018-03-07T01:02:23.093Z,102.40
2018-03-07T01:04:58.045Z,90.53
2018-03-07T01:07:33.099Z,97.97
2018-03-07T01:10:08.558Z,103.80
2018-03-07T01:12:43.330Z,90.03
2018-03-07T01:15:18.262Z,80.80
2018-03-07T01:17:53.009Z,95.33
2018-03-07T01:20:28.203Z,98.10
2018-03-07T01:23:03.034Z,96.87
2018-03-07T01:25:38.065Z,103.17
2018-03-07T01:28:13.407Z,106.15
2018-03-07T01:30:48.222Z,99.17
2018-03-07T01:33:23.202Z,94.37
2018-03-07T01:35:58.494Z,104.10
2018-03-07T01:38:33.380Z,104.10
2018-03-07T01:41:08.622Z,99.80
2018-03-07T01:43:43.542Z,94.77
2018-03-07T01:46:18.550Z,91.78
2018-03-07T01:48:53.610Z,104.40
2018-03-07T01:51:39.610Z,85.33
2018-03-07T01:54:14.444Z,101.03
2018-03-07T01:56:49.517Z,99.63
2018-03-07T01:59:25.278Z,97.80
2018-03-07T02:02:01.478Z,94.75
2018-03-07T02:04:36.114Z,82.57
2018-03-07T02:07:10.749Z,94.43
2018-03-07T02:09:45.698Z,93.10
2018-03-07T02:12:20.737Z,97.60
2018-03-07T02:14:55.611Z,104.80
2018-03-07T02:17:31.922Z,94.10
2018-03-07T02:20:07.466Z,90.93
2018-03-07T02:22:42.422Z,98.63
2018-03-07T02:25:17.858Z,93.83
2018-03-07T02:27:52.716Z,107.20
2018-03-07T02:30:27.744Z,100.33
2018-03-07T02:33:02.595Z,104.50
2018-03-07T02:35:37.379Z,94.00
2018-03-07T02:38:12.535Z,81.78
2018-03-07T02:40:47.345Z,94.77
2018-03-07T02:43:22.250Z,95.70
2018-03-07T02:45:56.603Z,105.80
2018-03-07T02:48:31.663Z,101.90
2018-03-07T02:51:06.598Z,101.13
2018-03-07T02:53:41.698Z,102.37
2018-03-07T02:56:16.287Z,101.67
2018-03-07T02:58:51.323Z,95.93
2018-03-07T03:01:26.435Z,96.83
2018-03-07T03:04:01.672Z,103.77
2018-03-07T03:06:36.547Z,107.37
2018-03-07T03:09:11.794Z,102.80
2018-03-07T03:11:47.306Z,102.27
2018-03-07T03:14:22.311Z,92.03
2018-03-07T03:16:57.354Z,100.97
2018-03-07T03:19:32.322Z,97.67
2018-03-07T03:22:07.597Z,100.25
2018-03-07T03:24:42.494Z,101.60
2018-03-07T03:27:17.764Z,107.60
2018-03-07T03:29:52.706Z,108.23
2018-03-07T03:32:27.798Z,95.57
2018-03-07T03:35:02.798Z,102.07
2018-03-07T03:37:37.922Z,90.40
2018-03-07T03:40:13.415Z,99.43
2018-03-07T03:42:48.603Z,90.30
2018-03-07T03:45:23.482Z,102.00
2018-03-07T03:47:58.462Z,95.10
2018-03-07T03:50:33.590Z,99.57
2018-03-07T03:53:08.675Z,101.77
2018-03-07T03:55:43.726Z,96.03
2018-03-07T03:58:19.123Z,90.47
2018-03-07T04:00:54.546Z,92.35
2018-03-07T04:03:29.633Z,108.27
2018-03-07T04:06:04.718Z,99.33
2018-03-07T04:08:39.795Z,107.40
2018-03-07T04:11:20.918Z,95.57
2018-03-07T04:13:55.451Z,93.47
2018-03-07T04:16:30.494Z,87.73
2018-03-07T04:19:05.797Z,106.37
2018-03-07T04:21:40.658Z,104.00
2018-03-07T04:24:15.888Z,87.07
2018-03-07T04:26:50.547Z,91.90
2018-03-07T04:29:26.550Z,99.77
2018-03-07T04:32:01.917Z,104.12
2018-03-07T04:34:36.782Z,101.07
2018-03-07T04:37:11.740Z,96.93
2018-03-07T04:39:46.749Z,95.27
2018-03-07T04:42:21.123Z,104.27
2018-03-07T04:44:56.505Z,101.57
2018-03-07T04:47:31.326Z,94.13
2018-03-07T04:50:06.826Z,102.20
2018-03-07T04:52:41.863Z,96.10
2018-03-07T04:55:16.786Z,92.55
2018-03-07T04:57:51.738Z,101.00
2018-03-07T05:00:26.207Z,97.07
2018-03-07T05:03:01.965Z,101.37
2018-03-07T05:05:37.703Z,95.07
2018-03-07T05:08:13.079Z,92.93
2018-03-07T05:10:47.961Z,111.70
2018-03-07T05:13:22.842Z,101.37
2018-03-07T05:15:57.951Z,105.93
2018-03-07T05:18:33.022Z,99.43
2018-03-07T05:21:07.976Z,112.20
2018-03-07T05:23:42.977Z,106.63
2018-03-07T05:26:18.044Z,110.23
2018-03-07T05:28:53.477Z,126.28
2018-03-07T05:31:28.618Z,100.57
2018-03-07T05:34:03.699Z,110.55
2018-03-07T05:36:38.791Z,102.63
2018-03-07T05:39:14.267Z,101.60
2018-03-07T05:41:49.769Z,99.87
2018-03-07T05:44:24.689Z,88.87
2018-03-07T05:46:59.843Z,107.47
2018-03-07T05:49:34.935Z,95.27
2018-03-07T05:52:09.890Z,90.38
2018-03-07T05:54:45.054Z,101.47
2018-03-07T05:57:20.118Z,97.43
2018-03-07T05:59:55.629Z,92.90
2018-03-07T06:02:30.351Z,103.53
2018-03-07T06:05:05.954Z,112.30
2018-03-07T06:07:40.818Z,98.70
2018-03-07T06:10:16.005Z,104.22
2018-03-07T06:12:51.091Z,102.00
2018-03-07T06:15:26.704Z,117.68
2018-03-07T06:18:02.206Z,127.93
2018-03-07T06:20:37.763Z,114.73
2018-03-07T06:23:12.825Z,130.00
2018-03-07T06:25:47.833Z,120.67
2018-03-07T06:28:23.082Z,111.13
2018-03-07T06:30:58.342Z,109.23
2018-03-07T06:33:33.286Z,110.63
2018-03-07T06:36:08.995Z,110.68
2018-03-07T06:38:44.500Z,112.40
2018-03-07T06:41:19.794Z,115.25
2018-03-07T06:43:54.779Z,102.30
2018-03-07T06:46:29.930Z,112.03
2018-03-07T06:49:05.223Z,99.53
2018-03-07T06:51:40.821Z,102.25
2018-03-07T06:54:15.970Z,104.97
2018-03-07T06:56:50.894Z,107.70
2018-03-07T06:59:25.834Z,106.63
2018-03-07T07:02:02.402Z,104.20
2018-03-07T07:04:37.915Z,92.77
2018-03-07T07:07:12.903Z,92.80
2018-03-07T07:09:47.978Z,97.93
2018-03-07T07:12:22.938Z,106.77
2018-03-07T07:14:57.886Z,98.17
2018-03-07T07:17:32.938Z,107.87
2018-03-07T07:20:07.314Z,106.97
2018-03-07T07:22:42.342Z,103.80
2018-03-07T07:25:18.044Z,97.45
2018-03-07T07:27:53.315Z,99.90
2018-03-07T07:30:28.422Z,114.80
2018-03-07T07:33:03.396Z,111.57
2018-03-07T07:35:38.985Z,101.07
2018-03-07T07:38:14.131Z,103.85
2018-03-07T07:40:48.986Z,104.23
2018-03-07T07:43:24.008Z,100.63
2018-03-07T07:45:59.139Z,106.60
2018-03-07T07:48:33.991Z,109.00
2018-03-07T07:51:08.946Z,101.87
2018-03-07T07:53:44.004Z,101.77
2018-03-07T07:56:19.212Z,108.33
2018-03-07T07:58:53.983Z,118.00
2018-03-07T08:01:29.282Z,121.50
2018-03-07T08:04:04.448Z,110.50
2018-03-07T08:06:40.030Z,116.62
2018-03-07T08:09:15.260Z,132.10
2018-03-07T08:11:50.235Z,105.83
2018-03-07T08:14:25.398Z,113.83
2018-03-07T08:17:00.795Z,112.20
2018-03-07T08:19:35.466Z,110.40
2018-03-07T08:22:10.256Z,99.27
2018-03-07T08:24:45.338Z,112.00
2018-03-07T08:27:20.483Z,104.30
2018-03-07T08:29:55.314Z,107.20
2018-03-07T08:32:30.173Z,110.97
2018-03-07T08:35:04.862Z,120.97
2018-03-07T08:37:40.046Z,108.90
2018-03-07T08:40:15.438Z,113.07
2018-03-07T08:42:50.427Z,120.00
2018-03-07T08:45:25.175Z,116.60
2018-03-07T08:47:59.643Z,110.23
2018-03-07T08:50:34.792Z,109.13
2018-03-07T08:53:09.666Z,98.67
2018-03-07T08:55:45.226Z,114.80
2018-03-07T08:58:20.250Z,105.33
2018-03-07T09:00:55.261Z,103.67
2018-03-07T09:03:30.256Z,116.60
2018-03-07T09:06:04.599Z,123.50
2018-03-07T09:08:40.056Z,110.63
2018-03-07T09:11:15.478Z,115.03
2018-03-07T09:13:50.640Z,103.03
2018-03-07T09:16:29.196Z,103.00
2018-03-07T09:19:04.408Z,105.82
2018-03-07T09:21:39.294Z,107.20
2018-03-07T09:24:14.406Z,108.77
2018-03-07T09:26:49.358Z,104.57
2018-03-07T09:29:24.137Z,113.03
2018-03-07T09:31:59.383Z,107.43
2018-03-07T09:34:34.368Z,104.10
2018-03-07T09:37:09.371Z,109.97
2018-03-07T09:39:44.431Z,113.67
2018-03-07T09:42:19.265Z,98.83
2018-03-07T09:44:54.307Z,118.13
2018-03-07T09:47:29.507Z,105.47
2018-03-07T09:50:03.870Z,119.93
2018-03-07T09:52:38.506Z,95.63
2018-03-07T09:55:14.014Z,109.90
2018-03-07T09:57:49.284Z,105.15
2018-03-07T10:00:23.883Z,116.50
2018-03-07T10:02:59.234Z,115.78
2018-03-07T10:05:34.362Z,121.20
2018-03-07T10:08:09.530Z,109.53
2018-03-07T10:10:44.262Z,108.43
2018-03-07T10:13:19.516Z,116.95
2018-03-07T10:15:54.654Z,114.37
2018-03-07T10:18:29.723Z,109.30
2018-03-07T10:21:04.832Z,114.17
2018-03-07T10:23:39.858Z,103.83
2018-03-07T10:26:15.280Z,120.53
2018-03-07T10:28:50.570Z,124.87
2018-03-07T10:31:25.650Z,125.83
2018-03-07T10:34:00.707Z,118.03
2018-03-07T10:36:35.534Z,122.83
2018-03-07T10:39:10.634Z,115.45
2018-03-07T10:41:45.417Z,109.97
2018-03-07T10:44:20.503Z,121.75
2018-03-07T10:46:55.394Z,119.27
2018-03-07T10:49:30.647Z,111.03
2018-03-07T10:52:04.959Z,123.80
2018-03-07T10:54:40.558Z,122.43
2018-03-07T10:57:15.602Z,122.93
2018-03-07T10:59:50.548Z,127.13
2018-03-07T11:02:25.862Z,118.37
2018-03-07T11:05:02.775Z,119.50
2018-03-07T11:07:37.395Z,131.73
2018-03-07T11:10:12.699Z,112.60
2018-03-07T11:12:47.637Z,122.07
2018-03-07T11:15:22.370Z,131.43
2018-03-07T11:17:57.288Z,99.27
2018-03-07T11:20:31.943Z,105.50
2018-03-07T11:23:06.091Z,123.37
2018-03-07T11:25:41.284Z,103.57
2018-03-07T11:28:16.802Z,116.17
2018-03-07T11:30:51.607Z,114.60
2018-03-07T11:33:26.094Z,104.53
2018-03-07T11:36:01.004Z,106.00
2018-03-07T11:38:35.942Z,111.33
2018-03-07T11:41:11.080Z,120.40
2018-03-07T11:43:45.603Z,115.07
2018-03-07T11:46:20.598Z,111.12
2018-03-07T11:48:55.646Z,107.33
2018-03-07T11:51:30.734Z,111.30
2018-03-07T11:54:05.917Z,117.13
2018-03-07T11:56:40.947Z,112.10
2018-03-07T11:59:15.596Z,106.53
2018-03-07T12:01:50.624Z,113.13
2018-03-07T12:04:25.739Z,110.90
2018-03-07T12:07:00.576Z,106.03
2018-03-07T12:09:35.742Z,122.00
2018-03-07T12:12:10.891Z,108.07
2018-03-07T12:14:46.474Z,112.65
2018-03-07T12:17:21.649Z,115.10
2018-03-07T12:19:56.647Z,121.13
2018-03-07T12:22:31.690Z,110.60
2018-03-07T12:25:06.834Z,111.95
2018-03-07T12:27:41.954Z,112.07
2018-03-07T12:30:16.901Z,116.20
2018-03-07T12:32:52.218Z,106.07
2018-03-07T12:35:27.079Z,105.10
2018-03-07T12:38:02.971Z,113.25
2018-03-07T12:40:37.714Z,120.20
2018-03-07T12:43:12.892Z,123.87
2018-03-07T12:45:47.475Z,109.03
2018-03-07T12:48:22.746Z,114.00
2018-03-07T12:50:57.713Z,105.80
2018-03-07T12:53:32.655Z,127.57
2018-03-07T12:56:08.560Z,104.67
2018-03-07T12:58:43.731Z,110.27
2018-03-07T13:01:18.848Z,113.13
2018-03-07T13:03:53.904Z,114.77
2018-03-07T13:06:29.078Z,113.27
2018-03-07T13:09:03.171Z,110.20
2018-03-07T13:11:38.630Z,108.30
2018-03-07T13:14:13.679Z,112.10
2018-03-07T13:16:48.639Z,99.80
2018-03-07T13:19:23.648Z,103.67
2018-03-07T13:21:59.212Z,107.40
2018-03-07T13:24:34.867Z,96.17
2018-03-07T13:27:09.284Z,86.27
2018-03-07T13:29:44.771Z,90.80
2018-03-07T13:32:19.159Z,98.30
2018-03-07T13:34:53.766Z,90.90
2018-03-07T13:37:28.763Z,91.27
2018-03-07T13:40:10.727Z,99.93
2018-03-07T13:42:45.344Z,87.33
2018-03-07T13:45:20.810Z,86.55
2018-03-07T13:47:55.795Z,84.60
2018-03-07T13:50:30.903Z,89.57
2018-03-07T13:53:06.368Z,86.43
2018-03-07T13:55:41.052Z,88.80
2018-03-07T13:58:16.432Z,87.27
2018-03-07T14:00:51.010Z,97.67
2018-03-07T14:03:26.282Z,87.03
2018-03-07T14:06:01.292Z,86.63
2018-03-07T14:08:36.334Z,93.70
2018-03-07T14:11:12.190Z,91.85
2018-03-07T14:13:46.846Z,88.77
2018-03-07T14:16:22.053Z,89.00
2018-03-07T14:18:57.199Z,92.97
2018-03-07T14:21:31.836Z,93.15
2018-03-07T14:24:07.163Z,93.17
2018-03-07T14:26:41.793Z,91.07
2018-03-07T14:29:16.771Z,86.43
2018-03-07T14:31:51.834Z,90.73
2018-03-07T14:34:26.862Z,88.70
2018-03-07T14:37:03.227Z,86.43
2018-03-07T14:39:38.010Z,86.97
2018-03-07T14:42:13.218Z,85.18
2018-03-07T14:44:48.190Z,96.20
2018-03-07T14:47:22.834Z,85.40
2018-03-07T14:49:57.403Z,90.47
2018-03-07T14:52:32.900Z,82.47
2018-03-07T14:55:07.953Z,82.07
2018-03-07T14:57:42.967Z,90.10
2018-03-07T15:00:17.621Z,88.73
2018-03-07T15:02:53.106Z,90.33
2018-03-07T15:05:28.171Z,92.40
2018-03-07T15:08:03.300Z,82.30
2018-03-07T15:10:38.261Z,79.93
2018-03-07T15:13:13.217Z,83.12
2018-03-07T15:15:48.285Z,84.60
2018-03-07T15:18:22.905Z,89.33
2018-03-07T15:20:58.199Z,85.00
2018-03-07T15:23:33.267Z,110.80
2018-03-07T15:26:08.203Z,91.73
2018-03-07T15:28:43.790Z,80.70
2018-03-07T15:31:19.239Z,79.62
2018-03-07T15:33:54.104Z,79.83
2018-03-07T15:36:29.241Z,81.00
2018-03-07T15:39:03.287Z,82.40
2018-03-07T15:41:38.042Z,78.07
2018-03-07T15:44:13.104Z,76.87
2018-03-07T15:46:48.257Z,70.13
2018-03-07T15:49:22.914Z,76.20
2018-03-07T15:51:57.663Z,76.80
2018-03-07T15:54:32.147Z,76.80
2018-03-07T15:57:07.254Z,77.77
2018-03-07T15:59:42.222Z,78.30
2018-03-07T16:02:17.378Z,70.35
2018-03-07T16:04:52.898Z,66.30
2018-03-07T16:07:27.538Z,72.53
2018-03-07T16:10:03.460Z,76.28
2018-03-07T16:12:38.314Z,73.20
2018-03-07T16:15:13.339Z,67.43
2018-03-07T16:17:48.179Z,75.57
2018-03-07T16:20:23.284Z,76.83
2018-03-07T16:22:58.564Z,80.43
2018-03-07T16:25:34.051Z,77.80
2018-03-07T16:28:08.731Z,71.63
2018-03-07T16:30:44.244Z,74.17
2018-03-07T16:33:19.546Z,77.00
2018-03-07T16:35:54.147Z,71.80
2018-03-07T16:38:29.330Z,75.30
2018-03-07T16:41:04.392Z,69.40
2018-03-07T16:43:39.781Z,76.57
2018-03-07T16:46:14.638Z,78.62
2018-03-07T16:48:50.127Z,74.50
2018-03-07T16:51:24.906Z,77.47
2018-03-07T16:54:00.422Z,76.43
2018-03-07T16:56:35.414Z,88.27
2018-03-07T16:59:10.410Z,77.23
2018-03-07T17:01:45.367Z,103.90
2018-03-07T17:04:20.423Z,104.30
2018-03-07T17:06:55.612Z,123.17
2018-03-07T17:09:30.274Z,84.43
2018-03-07T17:12:05.478Z,86.27
2018-03-07T17:14:40.423Z,83.43
2018-03-07T17:17:15.393Z,75.45
2018-03-07T17:19:50.244Z,69.20
2018-03-07T17:22:25.295Z,73.10
2018-03-07T17:25:00.491Z,82.47
2018-03-07T17:27:35.116Z,74.25
2018-03-07T17:30:09.458Z,71.87
2018-03-07T17:32:45.720Z,77.90
2018-03-07T17:35:21.213Z,85.57
2018-03-07T17:37:56.168Z,78.87
2018-03-07T17:40:31.285Z,68.30
2018-03-07T17:43:06.675Z,67.43
2018-03-07T17:45:41.711Z,69.73
2018-03-07T17:48:16.350Z,74.55
2018-03-07T17:50:51.287Z,71.30
2018-03-07T17:53:26.262Z,71.63
2018-03-07T17:56:01.345Z,75.20
2018-03-07T17:58:36.845Z,80.00
2018-03-07T18:01:11.900Z,69.03
2018-03-07T18:03:46.788Z,77.13
2018-03-07T18:06:22.240Z,72.97
2018-03-07T18:08:57.511Z,73.80
2018-03-07T18:11:32.642Z,76.93
2018-03-07T18:14:08.112Z,75.75
2018-03-07T18:16:42.839Z,71.83
2018-03-07T18:19:17.951Z,71.78
2018-03-07T18:21:52.630Z,73.47
2018-03-07T18:24:27.676Z,78.67
2018-03-07T18:27:03.467Z,70.65
2018-03-07T18:29:38.637Z,81.07
2018-03-07T18:32:13.569Z,75.93
2018-03-07T18:34:48.271Z,77.20
2018-03-07T18:37:23.325Z,81.83
2018-03-07T18:39:57.948Z,83.93
2018-03-07T18:42:33.279Z,79.28
2018-03-07T18:45:08.516Z,85.22
2018-03-07T18:47:43.476Z,86.27
2018-03-07T18:50:18.476Z,75.20
2018-03-07T18:52:53.661Z,100.70
2018-03-07T18:55:28.378Z,85.77
2018-03-07T18:58:03.605Z,89.73
2018-03-07T19:00:38.669Z,85.80
2018-03-07T19:03:13.739Z,87.57
2018-03-07T19:05:48.856Z,89.63
2018-03-07T19:08:24.418Z,79.67
2018-03-07T19:10:59.535Z,92.50
2018-03-07T19:13:34.502Z,85.73
2018-03-07T19:16:09.671Z,92.00
2018-03-07T19:18:44.028Z,97.53
2018-03-07T19:21:19.477Z,84.20
2018-03-07T19:23:54.513Z,93.07
2018-03-07T19:26:29.858Z,84.80
2018-03-07T19:29:04.339Z,87.43
2018-03-07T19:31:38.507Z,84.90
2018-03-07T19:34:13.813Z,96.30
2018-03-07T19:36:48.982Z,97.33
2018-03-07T19:39:23.550Z,90.97
2018-03-07T19:41:58.691Z,96.73
2018-03-07T19:44:33.966Z,92.07
2018-03-07T19:47:09.434Z,91.20
2018-03-07T19:49:44.957Z,108.30
2018-03-07T19:52:20.743Z,94.85
2018-03-07T19:54:55.581Z,104.47
2018-03-07T19:57:30.614Z,100.17
2018-03-07T20:00:09.622Z,100.60
2018-03-07T20:02:44.502Z,103.47
2018-03-07T20:05:19.518Z,94.07
2018-03-07T20:07:54.309Z,90.53
2018-03-07T20:10:29.374Z,103.38
2018-03-07T20:13:04.521Z,91.90
2018-03-07T20:15:39.427Z,112.30
2018-03-07T20:18:14.516Z,117.57
2018-03-07T20:20:49.626Z,112.07
2018-03-07T20:23:23.978Z,107.90
2018-03-07T20:25:58.963Z,102.37
2018-03-07T20:28:34.347Z,111.25
2018-03-07T20:31:09.760Z,115.30
2018-03-07T20:33:44.854Z,110.20
2018-03-07T20:36:20.416Z,110.00
2018-03-07T20:38:55.524Z,104.00
2018-03-07T20:41:30.637Z,100.40
2018-03-07T20:44:05.552Z,116.97
2018-03-07T20:46:40.560Z,94.23
2018-03-07T20:49:15.650Z,108.80
2018-03-07T20:51:50.736Z,110.43
2018-03-07T20:54:25.661Z,113.00
2018-03-07T20:57:00.786Z,107.57
2018-03-07T20:59:35.863Z,103.93
2018-03-07T21:02:10.831Z,112.67
2018-03-07T21:04:45.812Z,108.97
2018-03-07T21:07:20.935Z,107.00
2018-03-07T21:09:56.051Z,95.07
2018-03-07T21:12:31.084Z,110.17
2018-03-07T21:15:05.843Z,94.97
2018-03-07T21:17:40.737Z,96.87
2018-03-07T21:20:15.607Z,101.03
2018-03-07T21:22:50.648Z,88.77
2018-03-07T21:25:25.007Z,90.60
2018-03-07T21:28:01.325Z,89.30
2018-03-07T21:30:36.190Z,84.53
2018-03-07T21:33:11.685Z,79.75
2018-03-07T21:35:46.773Z,67.23
2018-03-07T21:38:21.718Z,69.53
2018-03-07T21:40:56.787Z,70.33
2018-03-07T21:43:31.911Z,73.97
2018-03-07T21:46:07.385Z,75.53
2018-03-07T21:48:42.267Z,69.97
2018-03-07T21:51:16.962Z,62.77
2018-03-07T21:53:52.112Z,55.70
2018-03-07T21:56:27.090Z,51.80
2018-03-07T21:59:01.814Z,50.90
2018-03-07T22:01:36.755Z,47.33
2018-03-07T22:04:11.626Z,44.13
2018-03-07T22:06:46.884Z,41.13
2018-03-07T22:09:22.095Z,46.33
2018-03-07T22:11:57.584Z,53.10
2018-03-07T22:14:32.823Z,44.50
2018-03-07T22:17:07.974Z,52.70
2018-03-07T22:19:45.589Z,46.23
2018-03-07T22:22:20.717Z,40.73
2018-03-07T22:24:56.096Z,46.00
2018-03-07T22:27:30.911Z,44.83
2018-03-07T22:30:06.762Z,49.30
2018-03-07T22:32:41.610Z,45.35
2018-03-07T22:35:16.997Z,40.67
2018-03-07T22:37:51.984Z,34.00
2018-03-07T22:40:26.546Z,37.47
2018-03-07T22:43:02.007Z,39.90
2018-03-07T22:45:37.012Z,39.17
2018-03-07T22:48:13.503Z,37.58
2018-03-07T22:50:48.903Z,37.77
2018-03-07T22:53:23.785Z,34.40
2018-03-07T22:55:58.879Z,38.33
2018-03-07T22:58:33.867Z,35.70
2018-03-07T23:01:08.939Z,41.53
2018-03-07T23:03:43.771Z,41.42
2018-03-07T23:06:18.847Z,37.13
2018-03-07T23:08:53.889Z,35.23
2018-03-07T23:11:28.874Z,39.13
2018-03-07T23:14:04.210Z,34.00
2018-03-07T23:16:38.924Z,38.97
2018-03-07T23:19:14.192Z,34.72
2018-03-07T23:21:48.966Z,37.57
2018-03-07T23:24:24.054Z,36.60
2018-03-07T23:27:08.680Z,33.10
2018-03-07T23:29:43.188Z,32.00
2018-03-07T23:32:18.863Z,34.33
2018-03-07T23:34:53.887Z,31.15
2018-03-07T23:37:28.878Z,31.67
2018-03-07T23:40:04.026Z,29.80
2018-03-07T23:42:39.094Z,32.53
2018-03-07T23:45:14.017Z,34.80
2018-03-07T23:47:49.067Z,30.37
2018-03-07T23:50:24.293Z,33.50
2018-03-07T23:52:59.486Z,32.60
2018-03-07T23:55:34.258Z,32.03
2018-03-07T23:58:10.115Z,31.67
